Time;durP1;ratioP1;P1;durP2;ratioP2;P2;SDS_P1;SDS_P2;PMS_P1;PMS_P2;Temp;Humidity;BMP_temperature;BMP_pressure;BME280_temperature;BME280_humidity;BME280_pressure;Samples;Min_cycle;Max_cycle;Signal;HPM_P1;HPM_P2
2024/04/11 00:01:59;;;;;;;8.68;2.38;;;;;;;;;;5484906;25;20017;-64
2024/04/11 00:04:27;;;;;;;8.35;1.70;;;;;;;;;;5507657;25;20010;-64
2024/04/11 00:06:54;;;;;;;11.27;1.92;;;;;;;;;;5506381;25;20054;-64
2024/04/11 00:09:22;;;;;;;10.35;1.88;;;;;;;;;;5506473;25;20030;-64
2024/04/11 00:11:49;;;;;;;10.70;2.28;;;;;;;;;;5489228;25;20006;-64
2024/04/11 00:14:17;;;;;;;10.30;2.17;;;;;;;;;;5495487;25;20016;-64
2024/04/11 00:16:44;;;;;;;13.82;2.20;;;;;;;;;;5492107;25;20015;-64
2024/04/11 00:19:12;;;;;;;12.07;2.03;;;;;;;;;;5495459;25;20474;-64
2024/04/11 00:21:39;;;;;;;11.85;2.70;;;;;;;;;;5491255;25;20023;-64
2024/04/11 00:24:07;;;;;;;9.32;1.80;;;;;;;;;;5490370;25;20039;-64
2024/04/11 00:26:35;;;;;;;8.73;2.25;;;;;;;;;;5485918;25;20025;-64
2024/04/11 00:29:04;;;;;;;18.33;3.88;;;;;;;;;;5488633;25;20329;-64
2024/04/11 00:31:31;;;;;;;7.72;1.95;;;;;;;;;;5491719;25;20440;-64
2024/04/11 00:34:12;;;;;;;10.10;1.80;;;;;;;;;;5457296;25;20016;-64
2024/04/11 00:36:41;;;;;;;9.00;1.83;;;;;;;;;;5493778;25;20032;-64
2024/04/11 00:39:10;;;;;;;12.40;1.88;;;;;;;;;;5489550;25;20425;-64
2024/04/11 00:41:38;;;;;;;15.32;2.40;;;;;;;;;;5494695;25;20477;-64
2024/04/11 00:44:05;;;;;;;9.70;1.63;;;;;;;;;;5487377;25;20036;-64
2024/04/11 00:46:33;;;;;;;9.32;2.47;;;;;;;;;;5497140;25;20040;-64
2024/04/11 00:49:00;;;;;;;9.07;2.22;;;;;;;;;;5485336;25;20002;-64
2024/04/11 00:51:28;;;;;;;10.48;2.15;;;;;;;;;;5498840;25;20020;-64
2024/04/11 00:53:58;;;;;;;9.18;1.95;;;;;;;;;;5492418;25;20013;-64
2024/04/11 00:56:25;;;;;;;10.85;1.63;;;;;;;;;;5491668;25;20039;-64
2024/04/11 00:58:53;;;;;;;10.30;2.00;;;;;;;;;;5492932;25;20464;-64
2024/04/11 01:01:21;;;;;;;11.48;2.63;;;;;;;;;;5494313;25;20015;-65
2024/04/11 01:03:48;;;;;;;10.02;1.65;;;;;;;;;;5487127;25;20002;-64
2024/04/11 01:06:17;;;;;;;8.27;1.88;;;;;;;;;;5499671;25;20454;-64
2024/04/11 01:08:46;;;;;;;10.95;1.92;;;;;;;;;;5500604;25;20016;-64
2024/04/11 01:11:13;;;;;;;8.55;1.63;;;;;;;;;;5505507;25;20578;-64
2024/04/11 01:13:41;;;;;;;11.75;2.70;;;;;;;;;;5468886;25;20341;-64
2024/04/11 01:16:08;;;;;;;15.70;2.13;;;;;;;;;;5500431;25;20849;-64
2024/04/11 01:18:36;;;;;;;9.52;2.08;;;;;;;;;;5503459;25;20095;-64
2024/04/11 01:21:04;;;;;;;11.82;2.28;;;;;;;;;;5499511;25;20016;-64
2024/04/11 01:23:32;;;;;;;10.10;2.13;;;;;;;;;;5505021;25;20041;-64
2024/04/11 01:26:01;;;;;;;7.63;2.35;;;;;;;;;;5496971;25;20338;-64
2024/04/11 01:28:31;;;;;;;10.93;2.78;;;;;;;;;;5496773;25;20377;-64
2024/04/11 01:30:59;;;;;;;8.32;1.70;;;;;;;;;;5503147;25;20460;-64
2024/04/11 01:33:26;;;;;;;8.85;2.63;;;;;;;;;;5497105;25;20001;-66
2024/04/11 01:35:54;;;;;;;11.07;2.25;;;;;;;;;;5472224;25;20009;-64
2024/04/11 01:38:21;;;;;;;12.25;2.28;;;;;;;;;;5496929;25;20015;-64
2024/04/11 01:40:49;;;;;;;10.38;2.42;;;;;;;;;;5500661;25;20002;-64
2024/04/11 01:43:16;;;;;;;8.13;1.70;;;;;;;;;;5499233;25;20016;-64
2024/04/11 01:45:44;;;;;;;11.13;2.53;;;;;;;;;;5506762;25;20113;-64
2024/04/11 01:48:13;;;;;;;9.98;2.22;;;;;;;;;;5508898;25;20033;-64
2024/04/11 01:50:41;;;;;;;9.07;1.73;;;;;;;;;;5497967;25;20016;-64
2024/04/11 01:53:09;;;;;;;10.70;1.70;;;;;;;;;;5488768;25;20383;-64
2024/04/11 01:55:36;;;;;;;10.77;2.28;;;;;;;;;;5502467;25;20474;-64
2024/04/11 01:58:04;;;;;;;9.82;2.17;;;;;;;;;;5495519;25;20032;-64
2024/04/11 02:00:36;;;;;;;7.60;1.85;;;;;;;;;;5491255;25;20012;-64
2024/04/11 02:03:04;;;;;;;7.45;1.92;;;;;;;;;;5492958;25;20016;-65
2024/04/11 02:05:34;;;;;;;10.63;2.90;;;;;;;;;;5497856;25;20293;-64
2024/04/11 02:08:02;;;;;;;6.80;1.77;;;;;;;;;;5499458;25;20017;-64
2024/04/11 02:10:30;;;;;;;7.05;1.88;;;;;;;;;;5491686;25;20013;-64
2024/04/11 02:12:57;;;;;;;13.75;2.70;;;;;;;;;;5504452;25;20034;-64
2024/04/11 02:15:25;;;;;;;13.52;2.45;;;;;;;;;;5497530;25;20016;-64
2024/04/11 02:17:53;;;;;;;9.82;2.00;;;;;;;;;;5493585;25;20077;-64
2024/04/11 02:20:20;;;;;;;7.95;1.52;;;;;;;;;;5495579;25;20016;-64
2024/04/11 02:22:52;;;;;;;12.38;2.35;;;;;;;;;;5501383;25;20002;-64
2024/04/11 02:25:20;;;;;;;6.82;1.90;;;;;;;;;;5500863;25;20101;-64
2024/04/11 02:27:47;;;;;;;8.93;1.77;;;;;;;;;;5496829;25;20034;-63
2024/04/11 02:30:16;;;;;;;7.85;2.13;;;;;;;;;;5498444;25;20002;-64
2024/04/11 02:32:43;;;;;;;11.23;2.15;;;;;;;;;;5495619;25;20005;-64
2024/04/11 02:35:11;;;;;;;14.23;2.85;;;;;;;;;;5504186;25;20453;-64
2024/04/11 02:37:39;;;;;;;12.00;2.00;;;;;;;;;;5504525;25;20045;-64
2024/04/11 02:40:07;;;;;;;13.18;2.17;;;;;;;;;;5507206;25;20417;-64
2024/04/11 02:42:37;;;;;;;8.68;3.08;;;;;;;;;;5501631;25;20017;-64
2024/04/11 02:45:07;;;;;;;10.23;2.50;;;;;;;;;;5499014;25;20002;-64
2024/04/11 02:47:36;;;;;;;9.25;2.10;;;;;;;;;;5497002;25;20016;-64
2024/04/11 02:50:04;;;;;;;9.13;2.50;;;;;;;;;;5474970;25;20012;-64
2024/04/11 02:52:32;;;;;;;8.10;2.20;;;;;;;;;;5504549;25;20339;-64
2024/04/11 02:55:00;;;;;;;11.20;1.85;;;;;;;;;;5498280;25;20033;-64
2024/04/11 02:57:30;;;;;;;9.30;2.25;;;;;;;;;;5505021;25;20061;-64
2024/04/11 02:59:57;;;;;;;11.80;2.42;;;;;;;;;;5501273;25;20030;-64
2024/04/11 03:02:28;;;;;;;9.73;2.10;;;;;;;;;;5505464;25;20005;-64
2024/04/11 03:04:56;;;;;;;9.52;2.17;;;;;;;;;;5497039;25;20016;-64
2024/04/11 03:07:24;;;;;;;8.82;2.10;;;;;;;;;;5506593;25;20001;-64
2024/04/11 03:09:53;;;;;;;8.52;1.95;;;;;;;;;;5505715;25;20718;-64
2024/04/11 03:12:21;;;;;;;10.98;2.78;;;;;;;;;;5507872;25;20354;-64
2024/04/11 03:14:49;;;;;;;16.10;3.13;;;;;;;;;;5476045;25;20002;-64
2024/04/11 03:17:17;;;;;;;10.82;3.28;;;;;;;;;;5500672;25;20013;-64
2024/04/11 03:19:45;;;;;;;10.05;3.58;;;;;;;;;;5467709;26;20001;-64
2024/04/11 03:22:13;;;;;;;15.27;4.20;;;;;;;;;;5509707;25;20001;-64
2024/04/11 03:24:42;;;;;;;12.68;5.07;;;;;;;;;;5503049;25;20037;-64
2024/04/11 03:27:10;;;;;;;15.27;5.75;;;;;;;;;;5505704;25;20468;-64
2024/04/11 03:29:37;;;;;;;10.98;4.30;;;;;;;;;;5500957;25;20475;-64
2024/04/11 03:32:07;;;;;;;10.35;4.40;;;;;;;;;;5480290;26;19998;-64
2024/04/11 03:34:36;;;;;;;18.38;5.07;;;;;;;;;;5481561;25;20005;-64
2024/04/11 03:37:05;;;;;;;19.00;4.45;;;;;;;;;;5504647;25;20025;-65
2024/04/11 03:39:32;;;;;;;13.73;5.60;;;;;;;;;;5510933;25;20363;-65
2024/04/11 03:42:00;;;;;;;15.88;6.25;;;;;;;;;;5503482;25;20013;-65
2024/04/11 03:44:27;;;;;;;13.57;5.13;;;;;;;;;;5508580;25;20437;-65
2024/04/11 03:46:57;;;;;;;13.18;5.40;;;;;;;;;;5508889;25;20791;-65
2024/04/11 03:49:25;;;;;;;12.45;6.00;;;;;;;;;;5507608;25;20477;-64
2024/04/11 03:51:52;;;;;;;18.35;6.45;;;;;;;;;;5511593;25;20041;-64
2024/04/11 03:54:21;;;;;;;16.27;6.97;;;;;;;;;;5501131;25;20450;-65
2024/04/11 03:56:50;;;;;;;17.65;6.88;;;;;;;;;;5490584;25;20364;-65
2024/04/11 03:59:17;;;;;;;14.55;7.03;;;;;;;;;;5511085;25;20377;-65
2024/04/11 04:01:45;;;;;;;16.52;7.35;;;;;;;;;;5504881;25;20005;-65
2024/04/11 04:04:13;;;;;;;13.13;7.00;;;;;;;;;;5506423;25;20361;-65
2024/04/11 04:06:42;;;;;;;17.77;7.40;;;;;;;;;;5494715;25;20022;-65
2024/04/11 04:09:09;;;;;;;17.98;8.48;;;;;;;;;;5493730;25;20053;-63
2024/04/11 04:11:37;;;;;;;15.93;7.40;;;;;;;;;;5504451;25;20045;-63
2024/04/11 04:14:09;;;;;;;15.85;7.35;;;;;;;;;;5503648;25;20001;-63
2024/04/11 04:16:38;;;;;;;15.70;8.50;;;;;;;;;;5504981;25;20043;-63
2024/04/11 04:19:07;;;;;;;16.63;7.97;;;;;;;;;;5508758;25;20033;-63
2024/04/11 04:21:35;;;;;;;16.95;7.78;;;;;;;;;;5498569;25;20037;-63
2024/04/11 04:24:05;;;;;;;17.73;7.65;;;;;;;;;;5509531;25;20501;-63
2024/04/11 04:26:33;;;;;;;17.60;8.02;;;;;;;;;;5504986;25;20003;-63
2024/04/11 04:29:00;;;;;;;17.95;8.60;;;;;;;;;;5509688;25;20030;-63
2024/04/11 04:31:30;;;;;;;14.23;7.40;;;;;;;;;;5500974;25;20069;-63
2024/04/11 04:33:59;;;;;;;16.95;7.63;;;;;;;;;;5483569;25;20064;-63
2024/04/11 04:36:28;;;;;;;15.57;7.57;;;;;;;;;;5502452;25;20016;-63
2024/04/11 04:38:57;;;;;;;13.65;7.65;;;;;;;;;;5504940;25;20025;-63
2024/04/11 04:41:27;;;;;;;18.98;7.78;;;;;;;;;;5503837;25;20039;-63
2024/04/11 04:43:54;;;;;;;17.42;8.35;;;;;;;;;;5497477;25;20381;-63
2024/04/11 04:46:22;;;;;;;16.35;8.27;;;;;;;;;;5495981;25;20029;-64
2024/04/11 04:48:51;;;;;;;19.75;9.68;;;;;;;;;;5508209;25;20033;-64
2024/04/11 04:51:19;;;;;;;16.80;8.63;;;;;;;;;;5505257;25;20038;-64
2024/04/11 04:53:49;;;;;;;15.80;8.50;;;;;;;;;;5507907;25;20001;-64
2024/04/11 04:56:18;;;;;;;26.30;9.73;;;;;;;;;;5506753;25;20046;-64
2024/04/11 04:58:46;;;;;;;19.48;8.57;;;;;;;;;;5504212;25;20048;-64
2024/04/11 05:01:17;;;;;;;18.98;8.63;;;;;;;;;;5499544;25;20139;-64
2024/04/11 05:03:45;;;;;;;19.25;8.60;;;;;;;;;;5491658;25;20020;-64
2024/04/11 05:06:13;;;;;;;23.77;9.40;;;;;;;;;;5491314;25;20030;-63
2024/04/11 05:08:48;;;;;;;16.48;8.57;;;;;;;;;;5497002;25;20033;-64
2024/04/11 05:11:16;;;;;;;19.23;8.68;;;;;;;;;;5504756;25;20024;-64
2024/04/11 05:13:45;;;;;;;24.08;7.80;;;;;;;;;;5507629;25;20011;-64
2024/04/11 05:16:18;;;;;;;18.13;7.93;;;;;;;;;;5479271;25;20308;-64
2024/04/11 05:18:47;;;;;;;18.05;8.13;;;;;;;;;;5500411;25;20044;-64
2024/04/11 05:21:20;;;;;;;16.15;8.93;;;;;;;;;;5509435;25;20001;-64
2024/04/11 05:23:47;;;;;;;21.38;7.63;;;;;;;;;;5509416;25;20037;-64
2024/04/11 05:26:15;;;;;;;17.40;8.82;;;;;;;;;;5507440;25;20530;-64
2024/04/11 05:28:44;;;;;;;14.07;8.05;;;;;;;;;;5504084;25;20025;-64
2024/04/11 05:31:18;;;;;;;15.05;8.00;;;;;;;;;;5505455;25;20100;-64
2024/04/11 05:33:47;;;;;;;17.80;8.13;;;;;;;;;;5500040;25;20013;-64
2024/04/11 05:36:21;;;;;;;21.55;9.80;;;;;;;;;;5508121;25;20130;-64
2024/04/11 05:38:48;;;;;;;22.98;10.95;;;;;;;;;;5504169;25;20030;-64
2024/04/11 05:41:16;;;;;;;23.60;9.90;;;;;;;;;;5508637;25;20033;-64
2024/04/11 05:43:44;;;;;;;21.15;10.02;;;;;;;;;;5504999;25;20254;-64
2024/04/11 05:46:13;;;;;;;20.33;10.43;;;;;;;;;;5502692;25;20016;-64
2024/04/11 05:48:42;;;;;;;22.48;10.93;;;;;;;;;;5503001;25;20036;-64
2024/04/11 05:51:10;;;;;;;21.02;10.52;;;;;;;;;;5505506;25;20041;-64
2024/04/11 05:53:38;;;;;;;20.20;10.82;;;;;;;;;;5507416;25;20045;-64
2024/04/11 05:56:07;;;;;;;22.52;11.35;;;;;;;;;;5506499;25;20057;-64
2024/04/11 05:58:37;;;;;;;22.88;11.82;;;;;;;;;;5505964;25;20029;-64
2024/04/11 06:01:08;;;;;;;23.80;12.65;;;;;;;;;;5485399;25;20009;-64
2024/04/11 06:03:40;;;;;;;26.88;13.13;;;;;;;;;;5503734;25;20034;-64
2024/04/11 06:06:13;;;;;;;26.05;12.85;;;;;;;;;;5503329;25;20044;-65
2024/04/11 06:08:41;;;;;;;28.13;14.07;;;;;;;;;;5503416;25;20001;-63
2024/04/11 06:11:10;;;;;;;23.85;13.45;;;;;;;;;;5475620;25;20002;-64
2024/04/11 06:13:37;;;;;;;33.15;14.93;;;;;;;;;;5505558;25;20017;-64
2024/04/11 06:16:05;;;;;;;30.63;15.02;;;;;;;;;;5503506;25;20481;-63
2024/04/11 06:18:39;;;;;;;36.88;15.82;;;;;;;;;;5504972;25;20049;-64
2024/04/11 06:21:06;;;;;;;28.00;15.80;;;;;;;;;;5505710;25;20396;-64
2024/04/11 06:23:35;;;;;;;29.60;16.73;;;;;;;;;;5497947;25;20002;-64
2024/04/11 06:26:02;;;;;;;30.63;15.98;;;;;;;;;;5501864;25;20371;-64
2024/04/11 06:28:33;;;;;;;29.73;17.45;;;;;;;;;;5479368;25;20010;-65
2024/04/11 06:31:01;;;;;;;31.65;17.13;;;;;;;;;;5505532;25;20029;-64
2024/04/11 06:33:31;;;;;;;30.13;16.95;;;;;;;;;;5494445;25;20101;-65
2024/04/11 06:35:59;;;;;;;34.17;18.60;;;;;;;;;;5482066;25;21628;-65
2024/04/11 06:38:31;;;;;;;39.05;18.80;;;;;;;;;;5505173;25;20012;-65
2024/04/11 06:40:58;;;;;;;35.30;20.13;;;;;;;;;;5502235;25;20001;-64
2024/04/11 06:43:26;;;;;;;39.50;21.92;;;;;;;;;;5496606;25;20114;-65
2024/04/11 06:45:55;;;;;;;38.50;21.02;;;;;;;;;;5508364;25;20029;-65
2024/04/11 06:48:23;;;;;;;42.25;22.25;;;;;;;;;;5505420;25;20073;-65
2024/04/11 06:50:53;;;;;;;43.03;22.20;;;;;;;;;;5507803;25;20044;-65
2024/04/11 06:53:22;;;;;;;47.65;23.92;;;;;;;;;;5512727;25;20042;-65
2024/04/11 06:55:50;;;;;;;51.15;22.30;;;;;;;;;;5507923;25;20361;-66
2024/04/11 06:58:22;;;;;;;46.00;22.55;;;;;;;;;;5510206;25;20030;-66
2024/04/11 07:00:58;;;;;;;47.53;23.45;;;;;;;;;;5507452;25;20029;-67
2024/04/11 07:03:26;;;;;;;46.55;23.80;;;;;;;;;;5520955;26;20049;-66
2024/04/11 07:06:09;;;;;;;46.45;24.65;;;;;;;;;;5502952;25;20002;-66
2024/04/11 07:08:38;;;;;;;41.60;25.00;;;;;;;;;;5517456;25;20033;-66
2024/04/11 07:11:18;;;;;;;54.97;28.83;;;;;;;;;;5520878;25;20034;-66
2024/04/11 07:13:46;;;;;;;50.45;29.40;;;;;;;;;;5509692;25;20047;-66
2024/04/11 07:16:16;;;;;;;57.40;28.88;;;;;;;;;;5507927;25;20038;-66
2024/04/11 07:18:48;;;;;;;49.83;28.83;;;;;;;;;;5491814;25;20332;-66
2024/04/11 07:21:17;;;;;;;55.92;30.48;;;;;;;;;;5487162;25;20013;-66
2024/04/11 07:23:45;;;;;;;45.35;24.38;;;;;;;;;;5490852;25;20429;-66
2024/04/11 07:26:15;;;;;;;49.05;27.05;;;;;;;;;;5494755;25;20030;-66
2024/04/11 07:28:45;;;;;;;54.13;26.58;;;;;;;;;;5490203;25;20033;-67
2024/04/11 07:31:14;;;;;;;50.47;27.23;;;;;;;;;;5461684;25;20016;-66
2024/04/11 07:33:42;;;;;;;53.70;27.40;;;;;;;;;;5474651;25;20021;-66
2024/04/11 07:36:13;;;;;;;54.05;26.95;;;;;;;;;;5507883;25;20447;-66
2024/04/11 07:38:42;;;;;;;51.72;25.67;;;;;;;;;;5509953;25;20010;-66
2024/04/11 07:41:17;;;;;;;47.08;24.77;;;;;;;;;;5523259;25;20001;-66
2024/04/11 07:43:45;;;;;;;51.83;25.45;;;;;;;;;;5509653;25;20002;-66
2024/04/11 07:46:14;;;;;;;44.85;22.98;;;;;;;;;;5479645;25;20023;-66
2024/04/11 07:48:58;;;;;;;48.90;23.33;;;;;;;;;;5512326;25;20009;-67
2024/04/11 07:51:27;;;;;;;51.13;23.67;;;;;;;;;;5503146;25;20140;-66
2024/04/11 07:53:55;;;;;;;44.38;23.25;;;;;;;;;;5468165;25;20001;-67
2024/04/11 07:56:25;;;;;;;41.80;20.83;;;;;;;;;;5511556;25;20028;-66
2024/04/11 07:58:55;;;;;;;38.63;21.45;;;;;;;;;;5512522;25;20016;-66
2024/04/11 08:01:30;;;;;;;39.20;20.75;;;;;;;;;;5506604;25;20109;-67
2024/04/11 08:04:00;;;;;;;34.03;19.27;;;;;;;;;;5519734;25;20372;-66
2024/04/11 08:06:29;;;;;;;40.08;21.55;;;;;;;;;;5504584;25;20006;-67
2024/04/11 08:08:57;;;;;;;36.58;18.85;;;;;;;;;;5509781;25;20485;-67
2024/04/11 08:11:29;;;;;;;33.95;18.77;;;;;;;;;;5501644;25;20007;-67
2024/04/11 08:13:58;;;;;;;33.60;18.25;;;;;;;;;;5500472;25;20001;-66
2024/04/11 08:16:26;;;;;;;28.70;16.65;;;;;;;;;;5502020;25;20008;-67
2024/04/11 08:18:54;;;;;;;30.95;16.15;;;;;;;;;;5496447;25;20483;-67
2024/04/11 08:21:21;;;;;;;29.92;15.88;;;;;;;;;;5504856;25;20013;-67
2024/04/11 08:23:49;;;;;;;33.85;18.38;;;;;;;;;;5506304;25;20020;-67
2024/04/11 08:26:17;;;;;;;30.13;15.43;;;;;;;;;;5507293;25;20439;-67
2024/04/11 08:28:44;;;;;;;34.83;16.73;;;;;;;;;;5497434;25;20012;-67
2024/04/11 08:31:12;;;;;;;32.53;16.42;;;;;;;;;;5502829;25;20494;-67
2024/04/11 08:33:39;;;;;;;32.50;16.08;;;;;;;;;;5503458;25;20054;-68
2024/04/11 08:36:08;;;;;;;33.22;16.13;;;;;;;;;;5507281;25;20101;-67
2024/04/11 08:38:40;;;;;;;35.53;16.98;;;;;;;;;;5508054;25;20053;-67
2024/04/11 08:41:10;;;;;;;33.05;16.75;;;;;;;;;;5512592;25;20358;-68
2024/04/11 08:43:38;;;;;;;34.13;16.63;;;;;;;;;;5504967;25;20014;-68
2024/04/11 08:46:12;;;;;;;39.03;19.88;;;;;;;;;;5506043;25;20041;-68
2024/04/11 08:48:40;;;;;;;44.22;19.52;;;;;;;;;;5506658;25;20033;-67
2024/04/11 08:51:13;;;;;;;38.20;18.95;;;;;;;;;;5501049;25;20038;-65
2024/04/11 08:53:45;;;;;;;42.33;19.00;;;;;;;;;;5496860;25;20469;-65
2024/04/11 08:56:14;;;;;;;38.88;20.40;;;;;;;;;;5512015;25;20063;-65
2024/04/11 08:58:43;;;;;;;42.55;19.80;;;;;;;;;;5506472;25;20104;-65
2024/04/11 09:01:10;;;;;;;52.00;21.20;;;;;;;;;;5503445;25;20002;-65
2024/04/11 09:03:40;;;;;;;47.10;20.02;;;;;;;;;;5500023;25;20015;-65
2024/04/11 09:06:10;;;;;;;52.17;22.00;;;;;;;;;;5511312;25;20041;-65
2024/04/11 09:08:37;;;;;;;41.03;20.98;;;;;;;;;;5517479;25;20473;-65
2024/04/11 09:11:05;;;;;;;50.50;20.80;;;;;;;;;;5513332;25;20037;-64
2024/04/11 09:13:32;;;;;;;42.20;18.98;;;;;;;;;;5504329;25;20042;-65
2024/04/11 09:16:01;;;;;;;44.63;17.98;;;;;;;;;;5507494;25;20061;-65
2024/04/11 09:18:29;;;;;;;51.92;19.08;;;;;;;;;;5491661;25;20002;-65
2024/04/11 09:21:04;;;;;;;49.33;19.65;;;;;;;;;;5500257;25;20069;-63
2024/04/11 09:23:34;;;;;;;55.42;21.70;;;;;;;;;;5494123;25;20370;-65
2024/04/11 09:26:02;;;;;;;42.95;19.02;;;;;;;;;;5499385;25;20038;-66
2024/04/11 09:28:30;;;;;;;48.58;19.45;;;;;;;;;;5502435;25;20361;-64
2024/04/11 09:30:58;;;;;;;50.33;20.02;;;;;;;;;;5495221;25;20042;-68
2024/04/11 09:33:25;;;;;;;55.53;20.70;;;;;;;;;;5502738;25;20016;-65
2024/04/11 09:35:54;;;;;;;42.50;20.52;;;;;;;;;;5510955;25;20037;-65
2024/04/11 09:38:22;;;;;;;48.42;19.95;;;;;;;;;;5508940;25;20037;-65
2024/04/11 09:40:53;;;;;;;48.00;19.77;;;;;;;;;;5507018;25;20392;-67
2024/04/11 09:43:27;;;;;;;48.00;20.08;;;;;;;;;;5508000;25;20604;-66
2024/04/11 09:45:56;;;;;;;51.25;20.35;;;;;;;;;;5504125;25;20033;-65
2024/04/11 09:48:25;;;;;;;51.00;21.02;;;;;;;;;;5502272;25;20034;-65
2024/04/11 09:50:52;;;;;;;43.38;20.65;;;;;;;;;;5504184;25;20033;-65
2024/04/11 09:53:26;;;;;;;50.88;19.27;;;;;;;;;;5504285;25;20061;-65
2024/04/11 09:55:54;;;;;;;43.28;19.50;;;;;;;;;;5501848;25;20011;-65
2024/04/11 09:58:22;;;;;;;39.58;19.05;;;;;;;;;;5504738;25;20450;-65
2024/04/11 10:01:04;;;;;;;46.45;19.92;;;;;;;;;;5497457;25;20065;-65
2024/04/11 10:03:34;;;;;;;45.38;19.25;;;;;;;;;;5506228;25;20053;-65
2024/04/11 10:06:01;;;;;;;44.30;18.95;;;;;;;;;;5507072;25;20025;-65
2024/04/11 10:08:36;;;;;;;47.25;17.45;;;;;;;;;;5502939;25;20041;-66
2024/04/11 10:11:10;;;;;;;46.17;17.35;;;;;;;;;;5503271;25;20033;-66
2024/04/11 10:13:40;;;;;;;40.17;17.13;;;;;;;;;;5504143;25;20034;-65
2024/04/11 10:16:14;;;;;;;38.55;17.42;;;;;;;;;;5507195;25;20041;-65
2024/04/11 10:18:51;;;;;;;33.85;16.30;;;;;;;;;;5508178;25;20037;-66
2024/04/11 10:21:26;;;;;;;35.80;15.15;;;;;;;;;;5467872;25;20002;-65
2024/04/11 10:23:54;;;;;;;37.22;15.80;;;;;;;;;;5508792;25;20034;-66
2024/04/11 10:26:30;;;;;;;30.90;14.27;;;;;;;;;;5491510;25;20484;-66
2024/04/11 10:28:58;;;;;;;37.53;15.15;;;;;;;;;;5490684;25;20362;-66
2024/04/11 10:31:28;;;;;;;33.30;13.63;;;;;;;;;;5505370;25;20045;-66
2024/04/11 10:33:59;;;;;;;29.83;13.70;;;;;;;;;;5500654;25;20031;-66
2024/04/11 10:36:32;;;;;;;30.92;13.98;;;;;;;;;;5497513;25;20029;-65
2024/04/11 10:39:00;;;;;;;33.83;14.93;;;;;;;;;;5502706;25;20029;-65
2024/04/11 10:41:31;;;;;;;32.33;12.98;;;;;;;;;;5504590;25;20114;-66
2024/04/11 10:44:02;;;;;;;31.80;14.02;;;;;;;;;;5502062;25;19998;-66
2024/04/11 10:46:30;;;;;;;32.65;12.15;;;;;;;;;;5497964;25;20041;-67
2024/04/11 10:49:15;;;;;;;25.55;10.57;;;;;;;;;;5500039;25;20149;-66
2024/04/11 10:51:43;;;;;;;26.27;11.05;;;;;;;;;;5498153;25;20034;-67
2024/04/11 10:54:11;;;;;;;28.15;12.30;;;;;;;;;;5505487;25;20106;-67
2024/04/11 10:56:40;;;;;;;24.13;10.15;;;;;;;;;;5501434;25;20001;-66
2024/04/11 10:59:12;;;;;;;22.27;8.10;;;;;;;;;;5504976;25;20105;-66
2024/04/11 11:01:41;;;;;;;22.42;9.23;;;;;;;;;;5503159;25;20085;-67
2024/04/11 11:04:08;;;;;;;29.08;9.40;;;;;;;;;;5511293;25;20029;-67
2024/04/11 11:06:44;;;;;;;28.27;10.43;;;;;;;;;;5509603;25;20057;-67
2024/04/11 11:09:13;;;;;;;23.65;9.82;;;;;;;;;;5507073;25;20009;-66
2024/04/11 11:11:42;;;;;;;27.38;10.68;;;;;;;;;;5489214;25;20038;-66
2024/04/11 11:14:10;;;;;;;24.48;9.82;;;;;;;;;;5503701;25;20041;-66
2024/04/11 11:16:39;;;;;;;27.83;10.55;;;;;;;;;;5469162;25;20004;-67
2024/04/11 11:19:11;;;;;;;21.80;9.27;;;;;;;;;;5505327;25;20030;-65
2024/04/11 11:21:42;;;;;;;22.95;9.07;;;;;;;;;;5504851;25;20029;-66
2024/04/11 11:24:14;;;;;;;25.50;8.65;;;;;;;;;;5473752;25;20009;-67
2024/04/11 11:26:48;;;;;;;24.70;9.80;;;;;;;;;;5500879;25;20065;-65
2024/04/11 11:29:20;;;;;;;25.88;8.25;;;;;;;;;;5505755;25;20033;-65
2024/04/11 11:31:50;;;;;;;15.93;7.68;;;;;;;;;;5504248;25;20139;-65
2024/04/11 11:34:27;;;;;;;16.35;7.38;;;;;;;;;;5480326;25;20001;-66
2024/04/11 11:36:59;;;;;;;19.17;7.30;;;;;;;;;;5494165;25;20041;-67
2024/04/11 11:39:28;;;;;;;16.92;6.68;;;;;;;;;;5501017;25;20029;-66
2024/04/11 11:42:09;;;;;;;19.75;7.05;;;;;;;;;;5511301;25;20018;-66
2024/04/11 11:47:34;;;;;;;22.02;7.15;;;;;;;;;;5495070;25;20734;-66
2024/04/11 11:50:01;;;;;;;20.45;6.32;;;;;;;;;;5492688;25;21053;-66
2024/04/11 11:52:31;;;;;;;17.00;5.72;;;;;;;;;;5489453;25;20030;-66
2024/04/11 11:54:59;;;;;;;15.32;6.60;;;;;;;;;;5499690;25;20059;-66
2024/04/11 11:57:39;;;;;;;19.38;6.82;;;;;;;;;;5460704;25;20009;-66
2024/04/11 12:00:18;;;;;;;19.38;6.18;;;;;;;;;;5502692;25;20028;-66
2024/04/11 12:02:50;;;;;;;20.35;6.18;;;;;;;;;;5502241;25;20037;-66
2024/04/11 12:05:23;;;;;;;17.63;6.22;;;;;;;;;;5497316;25;20029;-66
2024/04/11 12:07:53;;;;;;;19.30;6.88;;;;;;;;;;5504087;25;20046;-66
2024/04/11 12:10:29;;;;;;;16.90;5.70;;;;;;;;;;5501072;25;20033;-66
2024/04/11 12:13:18;;;;;;;17.10;5.50;;;;;;;;;;5503357;25;20033;-66
2024/04/11 12:15:48;;;;;;;15.23;5.57;;;;;;;;;;5495135;25;20460;-66
2024/04/11 12:18:16;;;;;;;18.38;5.38;;;;;;;;;;5503917;25;21479;-67
2024/04/11 12:20:43;;;;;;;11.77;4.07;;;;;;;;;;5504131;25;20016;-66
2024/04/11 12:23:11;;;;;;;11.75;4.78;;;;;;;;;;5502595;25;20369;-66
2024/04/11 12:25:39;;;;;;;12.98;4.97;;;;;;;;;;5512998;25;20001;-67
2024/04/11 12:28:09;;;;;;;12.82;4.18;;;;;;;;;;5501598;25;20111;-66
2024/04/11 12:30:38;;;;;;;15.90;4.15;;;;;;;;;;5506944;25;20048;-66
2024/04/11 12:33:05;;;;;;;13.85;3.85;;;;;;;;;;5513045;25;20048;-66
2024/04/11 12:35:45;;;;;;;16.45;4.68;;;;;;;;;;5499688;25;20038;-66
2024/04/11 12:38:15;;;;;;;14.10;3.45;;;;;;;;;;5500528;25;20035;-66
2024/04/11 12:40:48;;;;;;;11.90;4.43;;;;;;;;;;5504346;25;20041;-66
2024/04/11 12:43:17;;;;;;;10.90;3.92;;;;;;;;;;5504144;25;20353;-67
2024/04/11 12:45:52;;;;;;;12.63;3.80;;;;;;;;;;5504524;25;20014;-66
2024/04/11 12:48:21;;;;;;;13.90;4.82;;;;;;;;;;5505247;25;20002;-66
2024/04/11 12:50:50;;;;;;;12.85;4.30;;;;;;;;;;5500469;25;20056;-66
2024/04/11 12:53:21;;;;;;;9.93;4.13;;;;;;;;;;5505883;25;20045;-66
2024/04/11 12:55:52;;;;;;;13.75;4.43;;;;;;;;;;5505018;25;20709;-66
2024/04/11 12:58:23;;;;;;;10.43;3.78;;;;;;;;;;5505397;25;20100;-66
2024/04/11 13:01:08;;;;;;;10.88;4.45;;;;;;;;;;5505302;25;20348;-66
2024/04/11 13:03:56;;;;;;;11.95;4.10;;;;;;;;;;5504898;25;20012;-67
2024/04/11 13:06:29;;;;;;;9.50;3.42;;;;;;;;;;5495110;25;21927;-66
2024/04/11 13:09:10;;;;;;;12.18;4.20;;;;;;;;;;5496501;25;20002;-67
2024/04/11 13:11:38;;;;;;;11.40;4.10;;;;;;;;;;5502428;25;20366;-66
2024/04/11 13:14:10;;;;;;;8.73;3.58;;;;;;;;;;5528360;25;20016;-65
2024/04/11 13:16:50;;;;;;;12.95;4.00;;;;;;;;;;5497714;25;20033;-66
2024/04/11 13:19:20;;;;;;;12.20;4.13;;;;;;;;;;5494251;25;20090;-66
2024/04/11 13:22:02;;;;;;;12.23;4.10;;;;;;;;;;5506501;25;20041;-66
2024/04/11 13:24:42;;;;;;;8.02;3.88;;;;;;;;;;5498457;25;20015;-66
2024/04/11 13:27:10;;;;;;;10.10;3.83;;;;;;;;;;5498192;25;20440;-66
2024/04/11 13:29:37;;;;;;;10.30;3.88;;;;;;;;;;5502784;25;20100;-67
2024/04/11 13:32:05;;;;;;;9.70;3.80;;;;;;;;;;5504542;25;20258;-67
2024/04/11 13:34:39;;;;;;;9.82;3.17;;;;;;;;;;5496282;25;20133;-77
2024/04/11 13:37:13;;;;;;;8.48;3.22;;;;;;;;;;5499695;25;20196;-67
2024/04/11 13:40:57;;;;;;;8.38;3.17;;;;;;;;;;5497925;25;20001;-67
2024/04/11 13:42:46;;;;;;;9.52;2.92;;;;;;;;;;5493644;25;20064;-66
2024/04/11 13:45:22;;;;;;;8.18;3.30;;;;;;;;;;5516331;25;20473;-67
2024/04/11 13:47:51;;;;;;;12.52;3.15;;;;;;;;;;5506906;25;20122;-67
2024/04/11 13:50:34;;;;;;;8.30;3.00;;;;;;;;;;5477266;25;20367;-67
2024/04/11 13:53:04;;;;;;;8.70;3.30;;;;;;;;;;5491390;25;19997;-67
2024/04/11 13:55:33;;;;;;;10.98;2.88;;;;;;;;;;5489215;25;20020;-67
2024/04/11 13:58:00;;;;;;;5.68;2.80;;;;;;;;;;5493473;25;20338;-67
2024/04/11 14:00:37;;;;;;;8.68;3.15;;;;;;;;;;5518548;25;20057;-67
2024/04/11 14:03:42;;;;;;;9.88;2.90;;;;;;;;;;5514160;25;20044;-66
2024/04/11 14:06:06;;;;;;;7.68;3.00;;;;;;;;;;5500781;25;20016;-66
2024/04/11 14:08:34;;;;;;;9.45;3.58;;;;;;;;;;5497303;25;20002;-66
2024/04/11 14:11:04;;;;;;;8.00;3.47;;;;;;;;;;5509545;25;20009;-66
2024/04/11 14:13:41;;;;;;;9.25;3.00;;;;;;;;;;5509631;25;20033;-66
2024/04/11 14:16:08;;;;;;;7.20;2.97;;;;;;;;;;5506242;25;20486;-66
2024/04/11 14:18:36;;;;;;;13.38;3.63;;;;;;;;;;5492240;25;20030;-68
2024/04/11 14:21:17;;;;;;;9.07;3.60;;;;;;;;;;5476840;26;20016;-66
2024/04/11 14:23:52;;;;;;;8.10;2.85;;;;;;;;;;5501179;25;20025;-66
2024/04/11 14:29:06;;;;;;;9.68;3.28;;;;;;;;;;5503817;25;20043;-65
2024/04/11 14:31:35;;;;;;;10.82;3.53;;;;;;;;;;5496950;26;20041;-65
2024/04/11 14:36:36;;;;;;;7.28;2.80;;;;;;;;;;5506913;25;20375;-65
2024/04/11 14:39:05;;;;;;;6.88;2.80;;;;;;;;;;5485572;26;20069;-65
2024/04/11 14:41:35;;;;;;;6.05;2.33;;;;;;;;;;5502968;25;20152;-65
2024/04/11 14:44:08;;;;;;;7.53;2.97;;;;;;;;;;5508963;25;20081;-65
2024/04/11 14:46:36;;;;;;;8.23;2.83;;;;;;;;;;5513350;26;20033;-65
2024/04/11 14:49:04;;;;;;;7.53;2.97;;;;;;;;;;5498164;26;20041;-65
2024/04/11 14:51:40;;;;;;;5.07;2.70;;;;;;;;;;5507819;26;20054;-65
2024/04/11 14:54:15;;;;;;;7.90;2.90;;;;;;;;;;5501290;26;20041;-65